Time;durP1;ratioP1;P1;durP2;ratioP2;P2;SDS_P1;SDS_P2;PMS_P1;PMS_P2;Temp;Humidity;BMP_temperature;BMP_pressure;BME280_temperature;BME280_humidity;BME280_pressure;Samples;Min_cycle;Max_cycle;Signal;HPM_P1;HPM_P2
2021/12/18 00:02:22;;;;;;;20.25;10.15;;;7.60;99.90;;;;;;5018027;28;20351;-65
2021/12/18 00:04:47;;;;;;;;;;;7.60;99.90;;;;;;5018920;28;20195;-65
2021/12/18 00:07:13;;;;;;;17.63;9.32;;;7.60;99.90;;;;;;5019976;28;20292;-65
2021/12/18 00:09:40;;;;;;;;;;;7.70;99.90;;;;;;5018818;28;20142;-65
2021/12/18 00:12:06;;;;;;;14.63;8.20;;;7.70;99.90;;;;;;5016618;28;19913;-65
2021/12/18 00:14:32;;;;;;;14.25;7.82;;;7.70;99.90;;;;;;5019684;28;20070;-65
2021/12/18 00:16:57;;;;;;;;;;;7.70;99.90;;;;;;5018809;28;20123;-66
2021/12/18 00:19:26;;;;;;;10.50;5.47;;;7.70;99.90;;;;;;5018938;28;20482;-65
2021/12/18 00:21:53;;;;;;;6.20;3.33;;;7.70;99.90;;;;;;5019623;28;20021;-65
2021/12/18 00:24:19;;;;;;;8.07;4.28;;;7.60;99.90;;;;;;5018545;28;20044;-65
2021/12/18 00:26:45;;;;;;;10.15;4.47;;;7.60;99.90;;;;;;5019440;28;20030;-65
2021/12/18 00:29:10;;;;;;;;;;;7.60;99.90;;;;;;5017767;28;20539;-65
2021/12/18 00:31:36;;;;;;;6.30;3.05;;;7.60;99.90;;;;;;5019311;28;19914;-65
2021/12/18 00:34:01;;;;;;;7.15;2.55;;;7.50;99.90;;;;;;5017824;28;20061;-65
2021/12/18 00:36:27;;;;;;;4.30;2.67;;;7.50;99.90;;;;;;5018230;28;20048;-65
2021/12/18 00:38:52;;;;;;;;;;;7.50;99.90;;;;;;5020573;28;20413;-65
2021/12/18 00:44:02;;;;;;;4.70;1.50;;;7.50;99.90;;;;;;5019359;28;20036;-66
2021/12/18 00:46:35;;;;;;;4.32;1.70;;;7.40;99.90;;;;;;5017011;28;20511;-66
2021/12/18 00:49:02;;;;;;;2.47;1.48;;;7.40;99.90;;;;;;5018602;28;20034;-66
2021/12/18 00:51:28;;;;;;;3.63;1.38;;;7.40;99.90;;;;;;5018372;28;20041;-66
2021/12/18 00:53:53;;;;;;;;;;;7.50;99.90;;;;;;5019242;28;20030;-66
2021/12/18 00:56:19;;;;;;;2.33;1.38;;;7.40;99.90;;;;;;5018577;28;19913;-65
2021/12/18 00:58:46;;;;;;;;;;;7.40;99.90;;;;;;5019993;28;20053;-65
2021/12/18 01:01:12;;;;;;;1.95;1.00;;;7.40;99.90;;;;;;5014492;28;19939;-66
2021/12/18 01:03:39;;;;;;;;;;;7.40;99.90;;;;;;5009985;28;20469;-66
2021/12/18 01:06:04;;;;;;;3.00;1.17;;;7.50;99.90;;;;;;4997251;28;19921;-66
2021/12/18 01:08:30;;;;;;;;;;;7.50;99.90;;;;;;4995618;28;20034;-66
2021/12/18 01:13:55;;;;;;;3.28;1.85;;;7.40;99.90;;;;;;4999526;28;20441;-66
2021/12/18 01:16:24;;;;;;;6.43;2.13;;;7.40;99.90;;;;;;5010854;28;20073;-65
2021/12/18 01:24:18;;;;;;;4.72;1.60;;;7.40;99.90;;;;;;5001574;28;20151;-66
2021/12/18 01:26:44;;;;;;;;;;;7.40;99.90;;;;;;5001970;28;20033;-66
2021/12/18 01:29:09;;;;;;;2.72;1.75;;;7.40;99.90;;;;;;5001169;28;19924;-66
2021/12/18 01:31:35;;;;;;;;;;;7.40;99.90;;;;;;5007074;28;20036;-66
2021/12/18 01:34:00;;;;;;;2.90;1.05;;;7.40;99.90;;;;;;5017829;28;19905;-66
2021/12/18 01:36:28;;;;;;;;;;;7.40;99.90;;;;;;5020315;28;20355;-66
2021/12/18 01:38:54;;;;;;;3.22;1.60;;;7.40;99.90;;;;;;5010380;28;19917;-66
2021/12/18 01:41:20;;;;;;;;;;;7.40;99.90;;;;;;5006448;28;20095;-66
2021/12/18 01:46:45;;;;;;;4.22;1.67;;;7.50;99.90;;;;;;5006616;28;20040;-66
2021/12/18 01:52:15;;;;;;;5.53;2.00;;;7.50;99.90;;;;;;5000320;28;20041;-66
2021/12/18 01:54:43;;;;;;;4.47;2.20;;;7.50;99.90;;;;;;5003284;28;20022;-66
2021/12/18 01:57:09;;;;;;;5.13;2.20;;;7.50;99.90;;;;;;4998909;28;20033;-66
2021/12/18 01:59:37;;;;;;;;;;;7.40;99.90;;;;;;5001314;28;20038;-66
2021/12/18 02:02:03;;;;;;;8.40;2.20;;;7.50;99.90;;;;;;5007156;28;19920;-65
2021/12/18 02:04:29;;;;;;;5.28;1.80;;;7.40;99.90;;;;;;5001668;28;20029;-66
2021/12/18 02:06:54;;;;;;;;;;;7.40;99.90;;;;;;5004042;28;20697;-66
2021/12/18 02:09:23;;;;;;;2.92;1.13;;;7.40;99.90;;;;;;5001583;28;19922;-66
2021/12/18 02:11:48;;;;;;;2.10;1.25;;;7.30;99.90;;;;;;4998703;28;20030;-66
2021/12/18 02:14:35;;;;;;;;;;;7.30;99.90;;;;;;4998350;28;20044;-66
2021/12/18 02:19:58;;;;;;;4.78;1.95;;;7.40;99.90;;;;;;5002996;28;20037;-66
2021/12/18 02:22:25;;;;;;;4.03;1.77;;;7.40;99.90;;;;;;5002552;28;20056;-66
2021/12/18 02:24:51;;;;;;;2.80;1.73;;;7.40;99.90;;;;;;5011429;28;20021;-66
2021/12/18 02:27:16;;;;;;;;;;;7.40;99.90;;;;;;4999582;28;20037;-66
2021/12/18 02:29:42;;;;;;;5.28;1.88;;;7.40;99.90;;;;;;4998049;28;19922;-66
2021/12/18 02:32:09;;;;;;;;;;;7.40;99.90;;;;;;5007500;28;20025;-66
2021/12/18 02:34:37;;;;;;;3.58;1.63;;;7.40;99.90;;;;;;5014827;28;19942;-66
2021/12/18 02:37:06;;;;;;;3.65;1.45;;;7.40;99.90;;;;;;5014541;28;20087;-66
2021/12/18 02:40:46;;;;;;;4.82;1.77;;;7.40;99.90;;;;;;5005754;28;20034;-66
2021/12/18 02:42:32;;;;;;;3.75;1.63;;;7.40;99.90;;;;;;5002669;28;20030;-66
2021/12/18 02:44:58;;;;;;;6.00;2.20;;;7.30;99.90;;;;;;4999184;28;20484;-66
2021/12/18 02:47:23;;;;;;;;;;;7.30;99.90;;;;;;5000333;28;20040;-66
2021/12/18 02:49:51;;;;;;;2.35;1.80;;;7.30;99.90;;;;;;5000833;28;19996;-66
2021/12/18 02:52:18;;;;;;;2.13;1.55;;;7.30;99.90;;;;;;5023658;23;20058;-79
2021/12/18 02:54:45;;;;;;;2.55;1.17;;;7.20;99.90;;;;;;4998128;28;20109;-79
2021/12/18 02:57:10;;;;;;;;;;;7.10;99.90;;;;;;5003412;28;20026;-79
2021/12/18 02:59:49;;;;;;;1.88;1.17;;;7.10;99.90;;;;;;5005564;28;19982;-80
2021/12/18 03:02:17;;;;;;;1.58;0.88;;;7.10;99.90;;;;;;5016682;28;20037;-80
2021/12/18 03:04:46;;;;;;;1.38;0.90;;;7.00;99.90;;;;;;5000325;28;20108;-80
2021/12/18 03:07:14;;;;;;;2.33;0.90;;;7.00;99.90;;;;;;5000633;28;20256;-79
2021/12/18 03:19:07;;;;;;;1.73;0.90;;;7.00;99.90;;;;;;5000009;28;20036;-80
2021/12/18 03:25:56;;;;;;;1.88;1.02;;;7.00;99.90;;;;;;5002617;28;20527;-79
2021/12/18 03:28:22;;;;;;;1.40;1.00;;;7.00;99.90;;;;;;5001326;28;20435;-80
2021/12/18 03:30:47;;;;;;;;;;;7.00;99.90;;;;;;5003200;28;20018;-80
2021/12/18 03:33:13;;;;;;;1.58;1.08;;;7.00;99.90;;;;;;5000852;28;19968;-80
2021/12/18 03:35:38;;;;;;;2.17;1.30;;;7.00;99.90;;;;;;5002623;28;20535;-80
2021/12/18 03:38:04;;;;;;;;;;;7.10;99.90;;;;;;5001939;28;20419;-80
2021/12/18 03:40:29;;;;;;;1.77;0.82;;;7.10;99.90;;;;;;5002124;28;19913;-80
2021/12/18 03:42:55;;;;;;;1.45;1.00;;;7.10;99.90;;;;;;5002869;28;20134;-80
2021/12/18 03:45:21;;;;;;;;;;;7.10;99.90;;;;;;4999741;28;20041;-80
2021/12/18 03:47:48;;;;;;;4.40;1.55;;;7.20;99.90;;;;;;5001405;28;20392;-80
2021/12/18 03:50:14;;;;;;;2.75;1.40;;;7.10;99.90;;;;;;5001110;28;20034;-80
2021/12/18 03:52:39;;;;;;;;;;;7.20;99.90;;;;;;5001997;28;20041;-80
2021/12/18 03:55:06;;;;;;;1.17;0.68;;;7.20;99.90;;;;;;5000392;28;19921;-80
2021/12/18 03:57:31;;;;;;;2.50;1.05;;;7.20;99.90;;;;;;4998661;28;20037;-80
2021/12/18 03:59:57;;;;;;;;;;;7.20;99.90;;;;;;5000628;28;20025;-80
2021/12/18 04:02:23;;;;;;;3.90;1.10;;;7.20;99.90;;;;;;5003189;28;20399;-80
2021/12/18 04:04:48;;;;;;;;;;;7.10;99.90;;;;;;5018192;28;20393;-80
2021/12/18 04:07:15;;;;;;;2.72;1.08;;;7.10;99.90;;;;;;5002669;28;19917;-80
2021/12/18 04:09:41;;;;;;;2.72;1.20;;;7.10;99.90;;;;;;5003110;28;20030;-80
2021/12/18 04:12:06;;;;;;;;;;;7.10;99.90;;;;;;5002778;28;20036;-80
2021/12/18 04:14:32;;;;;;;6.40;2.50;;;7.10;99.90;;;;;;5003261;28;19916;-80
2021/12/18 04:16:57;;;;;;;3.95;1.80;;;7.20;99.90;;;;;;5001552;28;20513;-80
2021/12/18 04:19:23;;;;;;;4.55;2.33;;;7.20;99.90;;;;;;5015332;28;20038;-80
2021/12/18 04:21:49;;;;;;;;;;;7.20;99.90;;;;;;5004409;28;20500;-81
2021/12/18 04:24:14;;;;;;;2.88;1.33;;;7.20;99.90;;;;;;5002383;28;19916;-80
2021/12/18 04:26:40;;;;;;;2.97;1.80;;;7.20;99.90;;;;;;5002272;28;20030;-80
2021/12/18 04:29:06;;;;;;;;;;;7.20;99.90;;;;;;5002981;28;20502;-80
2021/12/18 04:31:34;;;;;;;3.58;1.80;;;7.20;99.90;;;;;;5001775;28;19909;-80
2021/12/18 04:34:00;;;;;;;5.07;2.58;;;7.20;99.90;;;;;;5001894;28;20128;-80
2021/12/18 04:36:25;;;;;;;;;;;7.20;99.90;;;;;;5007790;28;20527;-80
2021/12/18 04:38:51;;;;;;;5.45;1.42;;;7.20;99.90;;;;;;5002390;28;19905;-80
2021/12/18 04:41:34;;;;;;;;;;;7.20;99.90;;;;;;5001410;28;20054;-80
2021/12/18 04:44:00;;;;;;;2.85;0.70;;;7.20;99.90;;;;;;5001756;28;19920;-80
2021/12/18 04:46:25;;;;;;;;;;;7.10;99.90;;;;;;5003516;28;20034;-80
2021/12/18 04:48:51;;;;;;;1.98;1.10;;;7.10;99.90;;;;;;5000230;28;20397;-80
2021/12/18 04:51:16;;;;;;;;;;;7.10;99.90;;;;;;5002454;28;20452;-80
2021/12/18 04:53:42;;;;;;;1.40;0.80;;;7.10;99.90;;;;;;5002910;28;19917;-80
2021/12/18 04:56:07;;;;;;;;;;;7.10;99.90;;;;;;5003289;28;20157;-80
2021/12/18 04:58:33;;;;;;;2.33;0.85;;;7.10;99.90;;;;;;5002387;28;19925;-80
2021/12/18 05:00:58;;;;;;;2.30;0.90;;;7.10;99.90;;;;;;5024988;28;20072;-80
2021/12/18 05:03:24;;;;;;;;;;;7.10;99.90;;;;;;5001753;28;20037;-79
2021/12/18 05:05:49;;;;;;;2.05;1.20;;;7.10;99.90;;;;;;5003060;28;19936;-79
2021/12/18 05:08:15;;;;;;;;;;;7.10;99.90;;;;;;5002024;28;20320;-79
2021/12/18 05:10:40;;;;;;;2.17;1.27;;;7.10;99.90;;;;;;5001747;28;19909;-79
2021/12/18 05:13:06;;;;;;;2.15;1.38;;;7.10;99.90;;;;;;5001775;28;20108;-80
2021/12/18 05:15:33;;;;;;;2.55;1.58;;;7.10;99.90;;;;;;5001505;28;20559;-80
2021/12/18 05:17:59;;;;;;;2.03;0.98;;;7.10;99.90;;;;;;5000083;28;20169;-80
2021/12/18 05:20:24;;;;;;;;;;;7.10;99.90;;;;;;5002150;28;20105;-80
2021/12/18 05:22:50;;;;;;;2.65;1.48;;;7.10;99.90;;;;;;5003018;28;20389;-80
2021/12/18 05:25:16;;;;;;;4.53;1.85;;;7.10;99.90;;;;;;5001567;28;20106;-80
2021/12/18 05:27:41;;;;;;;;;;;7.10;99.90;;;;;;5002710;28;20030;-80
2021/12/18 05:30:09;;;;;;;3.20;0.70;;;7.00;99.90;;;;;;5001861;28;19916;-80
2021/12/18 05:32:35;;;;;;;1.42;0.80;;;7.00;99.90;;;;;;5001833;28;20025;-80
2021/12/18 05:35:02;;;;;;;;;;;6.90;99.90;;;;;;5001771;28;20029;-80
2021/12/18 05:37:48;;;;;;;2.78;0.68;;;7.00;99.90;;;;;;5000855;28;19960;-80
2021/12/18 05:40:22;;;;;;;0.90;0.40;;;6.90;99.90;;;;;;5001425;28;20030;-80
2021/12/18 05:42:50;;;;;;;2.92;0.40;;;6.90;99.90;;;;;;5000447;28;20047;-80
2021/12/18 05:45:16;;;;;;;1.83;0.60;;;6.80;99.90;;;;;;5000644;28;20500;-80
2021/12/18 05:47:43;;;;;;;;;;;6.80;99.90;;;;;;5001159;28;20057;-80
2021/12/18 05:50:10;;;;;;;0.70;0.43;;;6.80;99.90;;;;;;5000232;28;19913;-80
2021/12/18 05:52:36;;;;;;;1.48;0.63;;;6.90;99.90;;;;;;4999285;28;20117;-80
2021/12/18 05:55:02;;;;;;;;;;;6.80;99.90;;;;;;5002071;28;20153;-80
2021/12/18 05:57:27;;;;;;;1.10;0.50;;;6.90;99.90;;;;;;5001808;28;19960;-80
2021/12/18 05:59:52;;;;;;;;;;;6.80;99.90;;;;;;5001495;28;20128;-80
2021/12/18 06:02:18;;;;;;;1.67;0.65;;;6.80;99.90;;;;;;5001838;28;19909;-80
2021/12/18 06:04:44;;;;;;;;;;;6.70;99.90;;;;;;5000793;28;20036;-81
2021/12/18 06:07:17;;;;;;;4.45;1.10;;;6.70;99.90;;;;;;5001026;28;19909;-80
2021/12/18 06:09:43;;;;;;;1.75;0.77;;;6.70;99.90;;;;;;5000432;28;20184;-80
2021/12/18 06:12:09;;;;;;;;;;;6.70;99.90;;;;;;5000889;28;20524;-80
2021/12/18 06:14:34;;;;;;;3.05;1.10;;;6.70;99.90;;;;;;5000911;28;19920;-80
2021/12/18 06:17:00;;;;;;;3.70;1.33;;;6.70;99.90;;;;;;5000950;28;20069;-80
2021/12/18 06:19:25;;;;;;;;;;;6.70;99.90;;;;;;4999440;28;20366;-80
2021/12/18 06:21:50;;;;;;;2.05;1.15;;;6.70;99.90;;;;;;5001337;28;19913;-80
2021/12/18 06:24:16;;;;;;;;;;;6.70;99.90;;;;;;5001348;28;20034;-80
2021/12/18 06:26:42;;;;;;;2.40;0.70;;;6.70;99.90;;;;;;5000071;28;20357;-80
2021/12/18 06:29:07;;;;;;;;;;;6.70;99.90;;;;;;5002578;28;20030;-80
2021/12/18 06:31:34;;;;;;;1.98;1.02;;;6.70;99.90;;;;;;5002320;28;19921;-80
2021/12/18 06:33:59;;;;;;;4.20;1.60;;;6.70;99.90;;;;;;4998747;28;20022;-80
2021/12/18 06:36:25;;;;;;;;;;;6.70;99.90;;;;;;5005920;28;20092;-80
2021/12/18 06:38:50;;;;;;;2.90;1.58;;;6.70;99.90;;;;;;5015131;28;19952;-80
2021/12/18 06:41:16;;;;;;;;;;;6.70;99.90;;;;;;4999847;28;20038;-80
2021/12/18 06:43:41;;;;;;;3.53;1.27;;;6.70;99.90;;;;;;5000279;28;20007;-80
2021/12/18 06:46:07;;;;;;;5.28;1.75;;;6.70;99.90;;;;;;5002407;28;20098;-79
2021/12/18 06:48:33;;;;;;;2.97;1.38;;;6.70;99.90;;;;;;5000363;28;20045;-79
2021/12/18 06:50:59;;;;;;;5.57;2.55;;;6.70;99.90;;;;;;5001745;28;20026;-80
2021/12/18 06:53:24;;;;;;;;;;;6.80;99.90;;;;;;5002212;28;20056;-79
2021/12/18 06:55:50;;;;;;;2.45;1.88;;;6.80;99.90;;;;;;4998756;28;20404;-79
2021/12/18 06:58:16;;;;;;;3.65;2.05;;;6.80;99.90;;;;;;5002495;28;20042;-80
2021/12/18 07:00:42;;;;;;;4.68;2.63;;;6.80;99.90;;;;;;5000420;28;20041;-80
2021/12/18 07:03:07;;;;;;;;;;;6.80;99.90;;;;;;5022654;28;20120;-76
2021/12/18 07:05:32;;;;;;;2.20;1.42;;;6.80;99.90;;;;;;5016085;28;20731;-76
2021/12/18 07:07:58;;;;;;;;;;;6.80;99.90;;;;;;5002518;28;20029;-77
2021/12/18 07:10:23;;;;;;;5.28;3.10;;;6.80;99.90;;;;;;4999214;28;19920;-77
2021/12/18 07:12:49;;;;;;;;;;;7.00;99.90;;;;;;5004031;28;20109;-78
2021/12/18 07:15:15;;;;;;;5.05;2.75;;;7.20;99.90;;;;;;5003082;28;19912;-77
2021/12/18 07:17:41;;;;;;;5.15;2.78;;;7.10;99.90;;;;;;5001087;28;20100;-77
2021/12/18 07:20:07;;;;;;;;;;;7.10;99.90;;;;;;5000221;28;20030;-78
2021/12/18 07:22:33;;;;;;;3.93;2.63;;;7.00;99.90;;;;;;4999850;28;20269;-76
2021/12/18 07:24:58;;;;;;;12.23;3.85;;;7.00;99.90;;;;;;5002616;28;20037;-78
2021/12/18 07:27:24;;;;;;;9.48;4.05;;;6.90;99.90;;;;;;5002174;28;20092;-78
2021/12/18 07:29:49;;;;;;;;;;;6.90;99.90;;;;;;5002090;28;20030;-78
2021/12/18 07:32:15;;;;;;;10.32;4.80;;;6.90;99.90;;;;;;4999800;28;19910;-78
2021/12/18 07:34:40;;;;;;;;;;;6.90;99.90;;;;;;4998875;28;20034;-78
2021/12/18 07:37:06;;;;;;;4.82;2.40;;;6.90;99.90;;;;;;5001368;28;19920;-79
2021/12/18 07:39:31;;;;;;;;;;;6.90;99.90;;;;;;5001415;28;20125;-78
2021/12/18 07:41:57;;;;;;;4.32;2.83;;;7.00;99.90;;;;;;5004420;28;19919;-78
2021/12/18 07:44:22;;;;;;;;;;;6.90;99.90;;;;;;5009678;28;20065;-78
2021/12/18 07:46:48;;;;;;;5.95;3.15;;;6.90;99.90;;;;;;5008707;28;20781;-79
2021/12/18 07:49:14;;;;;;;;;;;6.90;99.90;;;;;;5016071;28;20029;-80
2021/12/18 07:51:39;;;;;;;6.22;2.70;;;7.00;99.90;;;;;;4996876;28;19944;-80
2021/12/18 07:54:05;;;;;;;;;;;7.00;99.90;;;;;;5016405;28;20106;-80
2021/12/18 07:56:31;;;;;;;9.57;3.40;;;7.00;99.90;;;;;;5005095;28;19953;-80
2021/12/18 07:58:57;;;;;;;6.80;3.58;;;7.00;99.90;;;;;;5000238;28;20112;-80
2021/12/18 08:01:22;;;;;;;8.85;4.95;;;7.00;99.90;;;;;;5001531;28;20037;-80
2021/12/18 08:03:48;;;;;;;16.30;4.95;;;7.00;99.90;;;;;;5003611;28;20042;-80
2021/12/18 08:06:15;;;;;;;8.15;4.47;;;7.00;99.90;;;;;;5002574;28;20034;-77
2021/12/18 08:08:40;;;;;;;16.73;4.55;;;7.00;99.90;;;;;;5002455;28;20038;-80
2021/12/18 08:11:06;;;;;;;;;;;7.10;99.90;;;;;;5004590;28;20088;-80
2021/12/18 08:13:31;;;;;;;8.98;4.93;;;7.10;99.90;;;;;;5003331;28;20004;-79
2021/12/18 08:15:57;;;;;;;10.95;6.53;;;7.10;99.90;;;;;;5004149;28;20030;-78
2021/12/18 08:18:22;;;;;;;;;;;7.10;99.90;;;;;;5002985;28;20076;-79
2021/12/18 08:20:48;;;;;;;16.98;5.57;;;7.10;99.90;;;;;;5003896;28;19906;-80
2021/12/18 08:23:14;;;;;;;19.20;6.13;;;7.10;99.90;;;;;;5003846;28;20038;-77
2021/12/18 08:25:39;;;;;;;;;;;7.20;99.90;;;;;;5006520;28;20033;-78
2021/12/18 08:28:05;;;;;;;13.02;6.28;;;7.20;99.90;;;;;;5005923;28;19906;-81
2021/12/18 08:30:34;;;;;;;14.07;7.00;;;7.20;99.90;;;;;;5004932;28;20026;-80
2021/12/18 08:32:59;;;;;;;10.77;5.38;;;7.20;99.90;;;;;;5004832;28;20041;-81
2021/12/18 08:35:26;;;;;;;;;;;7.20;99.90;;;;;;5005344;28;20034;-78
2021/12/18 08:37:52;;;;;;;10.02;6.38;;;7.20;99.90;;;;;;5003841;28;19910;-80
2021/12/18 08:40:19;;;;;;;8.70;5.25;;;7.20;99.90;;;;;;5004921;28;20034;-77
2021/12/18 08:42:44;;;;;;;9.75;4.88;;;7.20;99.90;;;;;;5005308;28;20026;-78
2021/12/18 08:45:10;;;;;;;;;;;7.20;99.90;;;;;;5006082;28;20103;-78
2021/12/18 08:47:36;;;;;;;6.50;4.97;;;7.30;99.90;;;;;;5023971;28;19909;-79
2021/12/18 08:50:02;;;;;;;6.00;3.88;;;7.30;99.90;;;;;;5003605;28;20065;-78
2021/12/18 08:52:27;;;;;;;10.65;5.47;;;7.30;99.90;;;;;;5016052;23;20053;-67
2021/12/18 08:54:53;;;;;;;;;;;7.30;99.90;;;;;;5001441;28;20045;-67
2021/12/18 08:57:18;;;;;;;6.35;3.15;;;7.30;99.90;;;;;;5000585;28;19935;-66
2021/12/18 08:59:44;;;;;;;9.40;4.20;;;7.30;99.90;;;;;;5000806;28;20488;-67
2021/12/18 09:02:10;;;;;;;;;;;7.40;99.90;;;;;;5001165;28;20037;-66
2021/12/18 09:04:36;;;;;;;15.20;8.70;;;7.40;99.90;;;;;;5016361;28;19914;-66
2021/12/18 09:07:02;;;;;;;;;;;7.40;99.90;;;;;;5007484;28;20030;-67
2021/12/18 09:09:27;;;;;;;2.67;1.92;;;7.40;99.90;;;;;;5000775;28;20391;-66
2021/12/18 09:11:53;;;;;;;4.85;2.55;;;7.40;99.90;;;;;;5000389;28;20045;-65
2021/12/18 09:14:18;;;;;;;;;;;7.50;99.90;;;;;;5001015;28;20038;-65
2021/12/18 09:16:44;;;;;;;3.90;2.72;;;7.50;99.90;;;;;;5016312;28;20308;-65
2021/12/18 09:19:09;;;;;;;7.05;4.00;;;7.50;99.90;;;;;;5001053;28;20062;-66
2021/12/18 09:21:35;;;;;;;5.63;3.10;;;7.50;99.90;;;;;;4999737;28;20038;-65
2021/12/18 09:24:01;;;;;;;;;;;7.50;99.90;;;;;;5001351;28;20033;-66
2021/12/18 09:26:26;;;;;;;5.20;3.72;;;7.50;99.90;;;;;;4999941;28;19917;-66
2021/12/18 09:28:52;;;;;;;5.47;3.00;;;7.50;99.90;;;;;;5011773;28;20026;-65
2021/12/18 09:31:18;;;;;;;5.90;3.55;;;7.50;99.90;;;;;;5006184;28;20042;-66
2021/12/18 09:33:43;;;;;;;4.22;2.25;;;7.50;99.90;;;;;;5000206;28;20030;-66
2021/12/18 09:36:09;;;;;;;6.55;3.17;;;7.60;99.90;;;;;;4999799;28;20132;-66
2021/12/18 09:38:34;;;;;;;6.18;3.08;;;7.60;99.90;;;;;;4999683;28;20033;-66
2021/12/18 09:41:01;;;;;;;5.13;3.10;;;7.60;99.90;;;;;;5007144;28;20232;-66
2021/12/18 09:43:28;;;;;;;4.75;2.53;;;7.70;99.90;;;;;;5000256;28;20048;-66
2021/12/18 09:45:59;;;;;;;4.10;2.08;;;7.70;99.90;;;;;;5000316;28;20452;-66
2021/12/18 09:48:25;;;;;;;6.70;4.15;;;7.70;99.90;;;;;;4999613;28;20306;-67
2021/12/18 09:50:56;;;;;;;;;;;7.70;99.90;;;;;;4995515;28;20076;-66
2021/12/18 09:53:21;;;;;;;3.38;2.22;;;7.60;99.90;;;;;;4996103;28;19913;-67
2021/12/18 09:55:48;;;;;;;8.23;3.10;;;7.70;99.90;;;;;;5011706;28;20077;-67
2021/12/18 09:58:13;;;;;;;;;;;7.70;99.90;;;;;;4997820;28;20060;-67
2021/12/18 10:00:39;;;;;;;4.65;2.60;;;7.60;99.90;;;;;;4997682;28;20593;-66
2021/12/18 10:03:04;;;;;;;;;;;7.60;99.90;;;;;;4998615;28;20049;-65
2021/12/18 10:05:33;;;;;;;6.53;3.00;;;7.60;99.90;;;;;;4994490;28;19913;-65
2021/12/18 10:08:17;;;;;;;4.45;3.08;;;7.60;99.90;;;;;;4996707;28;20061;-66
2021/12/18 10:10:59;;;;;;;7.07;3.50;;;7.70;99.90;;;;;;4998156;28;20165;-67
2021/12/18 10:13:25;;;;;;;6.90;3.25;;;7.70;99.90;;;;;;5002903;28;20026;-65
2021/12/18 10:16:10;;;;;;;;;;;7.70;99.90;;;;;;4997120;28;20512;-65
2021/12/18 10:18:35;;;;;;;4.68;3.55;;;7.70;99.90;;;;;;4994929;28;19913;-65
2021/12/18 10:21:11;;;;;;;;;;;7.70;99.90;;;;;;4995116;28;21792;-65
2021/12/18 10:23:37;;;;;;;2.97;2.30;;;7.80;99.90;;;;;;4997112;28;19921;-65
2021/12/18 10:26:03;;;;;;;;;;;7.80;99.90;;;;;;4997845;28;20039;-65
2021/12/18 10:28:43;;;;;;;6.50;3.35;;;7.80;99.90;;;;;;4997026;28;19924;-65
2021/12/18 10:31:08;;;;;;;7.50;3.50;;;7.80;99.90;;;;;;4997180;28;20122;-65
2021/12/18 10:33:35;;;;;;;;;;;7.80;99.90;;;;;;4997998;28;20116;-64
2021/12/18 10:36:01;;;;;;;7.05;4.20;;;7.80;99.90;;;;;;4996194;28;19971;-65
2021/12/18 10:38:51;;;;;;;9.25;4.80;;;7.80;99.90;;;;;;4995304;28;20052;-64
2021/12/18 10:41:30;;;;;;;5.05;3.45;;;7.90;99.90;;;;;;4995375;28;20026;-65
2021/12/18 10:44:03;;;;;;;5.28;3.05;;;7.90;99.90;;;;;;4996565;28;20033;-65
2021/12/18 10:46:30;;;;;;;6.47;2.95;;;7.90;99.90;;;;;;5002772;28;20124;-65
2021/12/18 10:49:02;;;;;;;3.30;2.10;;;7.90;99.90;;;;;;4996986;28;20036;-65
2021/12/18 10:51:30;;;;;;;5.50;2.90;;;7.80;99.90;;;;;;4995647;28;20030;-65
2021/12/18 10:54:01;;;;;;;4.55;2.78;;;7.80;99.90;;;;;;4996849;28;20021;-64
2021/12/18 10:56:38;;;;;;;5.53;2.65;;;7.80;99.90;;;;;;4995340;28;20034;-65
2021/12/18 10:59:18;;;;;;;4.70;3.00;;;7.80;99.90;;;;;;4997091;28;20497;-64
2021/12/18 11:01:50;;;;;;;5.10;3.05;;;7.80;99.90;;;;;;4997964;28;20029;-65
2021/12/18 11:04:25;;;;;;;6.18;3.33;;;7.80;99.90;;;;;;4998649;28;20404;-65
2021/12/18 11:06:51;;;;;;;8.97;4.27;;;7.80;99.90;;;;;;4997973;28;20029;-65
2021/12/18 11:09:24;;;;;;;4.20;1.88;;;7.80;99.90;;;;;;4997795;28;20045;-65
2021/12/18 11:14:43;;;;;;;5.05;2.65;;;7.90;99.90;;;;;;4983570;28;20043;-65
2021/12/18 11:17:12;;;;;;;3.47;2.53;;;7.80;99.90;;;;;;5001401;28;20018;-65
2021/12/18 11:19:40;;;;;;;4.75;3.10;;;7.90;99.90;;;;;;5004301;28;20045;-64
2021/12/18 11:22:14;;;;;;;7.45;2.95;;;7.90;99.90;;;;;;5003131;28;20025;-65
2021/12/18 11:25:03;;;;;;;3.72;2.45;;;7.90;99.90;;;;;;5003239;28;20037;-65
2021/12/18 11:27:31;;;;;;;4.65;2.53;;;7.90;99.90;;;;;;5009376;28;20026;-65
2021/12/18 11:30:01;;;;;;;5.85;1.92;;;7.90;99.90;;;;;;5002882;28;20030;-65
2021/12/18 11:32:32;;;;;;;5.03;2.78;;;7.90;99.90;;;;;;5002768;28;20113;-65
2021/12/18 11:35:03;;;;;;;4.13;2.28;;;7.90;99.90;;;;;;5002507;28;20082;-64
2021/12/18 11:37:45;;;;;;;6.90;3.05;;;7.90;99.90;;;;;;5002623;28;20041;-64
2021/12/18 11:40:15;;;;;;;6.93;3.22;;;7.90;99.90;;;;;;5002644;28;20030;-64
2021/12/18 11:42:42;;;;;;;4.45;2.70;;;7.90;99.90;;;;;;5002700;28;20027;-65
2021/12/18 11:45:09;;;;;;;6.13;2.20;;;7.90;99.90;;;;;;5002699;28;20033;-64
2021/12/18 11:47:42;;;;;;;4.50;2.33;;;7.90;99.90;;;;;;5003495;28;20034;-64
2021/12/18 11:50:50;;;;;;;4.07;2.72;;;7.90;99.90;;;;;;5002813;28;20025;-65
2021/12/18 11:57:00;;;;;;;4.75;2.60;;;8.00;99.90;;;;;;4905661;28;20033;-65
2021/12/18 11:59:36;;;;;;;;;;;8.00;99.90;;;;;;5002624;28;20113;-66
2021/12/18 12:02:02;;;;;;;6.35;2.88;;;7.90;99.90;;;;;;5002024;28;19905;-66
2021/12/18 12:04:47;;;;;;;;;;;7.90;99.90;;;;;;5002682;28;20146;-65
2021/12/18 12:07:21;;;;;;;3.72;1.80;;;8.00;99.90;;;;;;5002033;28;19980;-65
2021/12/18 12:10:45;;;;;;;3.80;1.70;;;8.00;99.90;;;;;;5002045;28;20057;-66
2021/12/18 12:13:08;;;;;;;3.72;1.90;;;7.90;99.90;;;;;;4986112;28;20035;-66
2021/12/18 12:15:33;;;;;;;;;;;7.90;99.90;;;;;;5002862;28;20692;-65
2021/12/18 12:18:00;;;;;;;3.83;1.90;;;7.90;99.90;;;;;;5001923;28;20383;-65
2021/12/18 12:20:38;;;;;;;2.92;1.88;;;7.80;99.90;;;;;;5002075;28;20030;-66
2021/12/18 12:23:04;;;;;;;4.43;2.58;;;7.80;99.90;;;;;;5001867;28;20053;-65
2021/12/18 12:25:45;;;;;;;4.15;3.13;;;7.80;99.90;;;;;;5001239;28;20124;-66
2021/12/18 12:28:20;;;;;;;6.97;3.80;;;7.90;99.90;;;;;;5001228;28;20058;-66
2021/12/18 12:30:58;;;;;;;3.87;2.30;;;7.90;99.90;;;;;;5001572;28;20060;-65
2021/12/18 12:33:33;;;;;;;5.95;3.55;;;7.80;99.90;;;;;;5001962;28;20671;-65
2021/12/18 12:36:11;;;;;;;4.88;2.67;;;7.80;99.90;;;;;;5001796;28;20022;-65
2021/12/18 12:38:57;;;;;;;5.20;2.83;;;7.80;99.90;;;;;;5001040;28;20026;-65
2021/12/18 12:41:42;;;;;;;8.60;4.05;;;7.80;99.90;;;;;;5016335;28;20446;-65
2021/12/18 12:44:24;;;;;;;6.35;4.68;;;7.80;99.90;;;;;;5000065;28;20025;-65
2021/12/18 12:47:15;;;;;;;7.22;3.92;;;7.80;99.90;;;;;;5001976;28;20124;-65
2021/12/18 12:49:42;;;;;;;7.18;4.15;;;7.80;99.90;;;;;;5001456;28;20122;-65
2021/12/18 12:52:27;;;;;;;6.40;4.35;;;7.70;99.90;;;;;;5001074;28;20041;-65
2021/12/18 12:55:05;;;;;;;5.57;3.92;;;7.70;99.90;;;;;;5001711;28;20106;-65
2021/12/18 12:57:44;;;;;;;5.50;3.63;;;7.70;99.90;;;;;;5001224;28;20579;-65
2021/12/18 13:00:09;;;;;;;4.85;2.83;;;7.70;99.90;;;;;;5000926;28;20026;-65
2021/12/18 13:02:36;;;;;;;;;;;7.70;99.90;;;;;;5000747;28;20566;-65
2021/12/18 13:05:07;;;;;;;6.40;2.97;;;7.70;99.90;;;;;;5000396;28;19933;-65
2021/12/18 13:07:34;;;;;;;4.53;2.30;;;7.70;99.90;;;;;;5001077;28;20287;-65
2021/12/18 13:09:59;;;;;;;5.13;2.88;;;7.60;99.90;;;;;;5015085;28;20034;-65
2021/12/18 13:12:25;;;;;;;;;;;7.70;99.90;;;;;;4999772;28;20033;-66
2021/12/18 13:14:52;;;;;;;5.90;3.20;;;7.70;99.90;;;;;;5000350;28;19984;-66
2021/12/18 13:17:17;;;;;;;7.18;3.50;;;7.70;99.90;;;;;;5000877;28;20022;-66
2021/12/18 13:20:00;;;;;;;;;;;7.70;99.90;;;;;;5000995;28;20044;-66
2021/12/18 13:22:31;;;;;;;7.00;3.60;;;7.70;99.90;;;;;;5015607;28;20249;-66
2021/12/18 13:25:08;;;;;;;5.63;3.47;;;7.60;99.90;;;;;;5000643;28;20026;-66
2021/12/18 13:27:36;;;;;;;6.20;4.13;;;7.70;99.90;;;;;;5000778;28;20416;-67
2021/12/18 13:30:22;;;;;;;7.47;2.80;;;7.70;99.90;;;;;;5000995;28;20034;-66
2021/12/18 13:33:00;;;;;;;4.47;2.80;;;7.70;99.90;;;;;;5006671;28;20041;-66
2021/12/18 13:35:30;;;;;;;5.30;2.88;;;7.70;99.90;;;;;;5000442;28;20101;-66
2021/12/18 13:38:06;;;;;;;4.63;3.33;;;7.70;99.90;;;;;;4999353;28;20488;-66
2021/12/18 13:40:50;;;;;;;6.40;3.22;;;7.70;99.90;;;;;;4999870;28;20034;-66
2021/12/18 13:43:24;;;;;;;6.00;2.70;;;7.70;99.90;;;;;;5000031;28;20030;-66
2021/12/18 13:45:58;;;;;;;6.70;3.70;;;7.80;99.90;;;;;;5001085;28;20030;-66
2021/12/18 13:48:29;;;;;;;6.13;3.63;;;7.80;99.90;;;;;;4999249;28;20031;-66
2021/12/18 13:51:08;;;;;;;10.10;5.15;;;7.70;99.90;;;;;;4999530;28;20101;-68
2021/12/18 13:53:34;;;;;;;7.15;3.75;;;7.80;99.90;;;;;;4999065;28;20117;-65
2021/12/18 13:56:05;;;;;;;6.20;4.18;;;8.00;99.90;;;;;;4999430;28;20037;-65
2021/12/18 13:58:33;;;;;;;7.38;4.45;;;8.00;99.90;;;;;;4999496;28;20034;-65
2021/12/18 14:01:01;;;;;;;8.27;3.65;;;8.00;99.90;;;;;;4999223;28;20022;-67
2021/12/18 14:04:01;;;;;;;6.82;3.78;;;7.90;99.90;;;;;;5000760;28;20030;-67
2021/12/18 14:06:32;;;;;;;7.07;3.45;;;7.80;99.90;;;;;;4997609;28;20125;-66